Terminal Aerodrome Forecast
Issued by NWS Springfield, MO

Home | Current Version | Previous Version | Text Only | Print | Product List | Glossary On
Versions: 1 2 3 4 5 6 7 8 9 10 11 12 13 14 15 16 17 18 19 20 21 22 23 24 25 26 27 28 29 30 31 32 33 34
000
FTUS43 KSGF 251535 AAD
TAFSGF
TAF AMD
KSGF 251535Z 2516/2612 21007KT P6SM -SHRA OVC060
     FM251700 24007KT P6SM -SHRA OVC060
     FM251800 27008KT P6SM -SHRA OVC020
     FM251900 26009KT P6SM -SHRA OVC015
     FM252000 25010KT P6SM VCSH OVC015
     FM260000 27009KT P6SM OVC015
     FM260500 27007KT P6SM OVC008=

USA.gov is the U.S. government's official web portal to all federal, state and local government web resources and services.